createdAt,value
2023-04-07T00:00:52.595Z,8.88
2023-04-07T00:01:52.753Z,9.44
2023-04-07T00:02:52.697Z,8.54
2023-04-07T00:03:52.963Z,7.80
2023-04-07T00:04:52.764Z,7.99
2023-04-07T00:05:52.773Z,7.88
2023-04-07T00:06:52.823Z,7.49
2023-04-07T00:07:57.010Z,7.72
2023-04-07T00:08:52.851Z,8.25
2023-04-07T00:09:52.862Z,8.32
2023-04-07T00:10:52.859Z,8.29
2023-04-07T00:11:52.837Z,8.62
2023-04-07T00:12:52.920Z,7.87
2023-04-07T00:13:53.178Z,7.90
2023-04-07T00:14:52.839Z,8.22
2023-04-07T00:15:52.859Z,7.92
2023-04-07T00:16:52.818Z,8.06
2023-04-07T00:17:52.864Z,8.19
2023-04-07T00:18:52.804Z,7.94
2023-04-07T00:19:52.821Z,8.09
2023-04-07T00:20:52.799Z,7.80
2023-04-07T00:21:52.799Z,7.35
2023-04-07T00:22:52.775Z,8.51
2023-04-07T00:23:53.011Z,8.00
2023-04-07T00:24:52.767Z,8.21
2023-04-07T00:25:52.773Z,8.13
2023-04-07T00:26:52.755Z,7.93
2023-04-07T00:27:52.734Z,8.13
2023-04-07T00:28:52.739Z,8.68
2023-04-07T00:29:52.714Z,7.94
2023-04-07T00:30:52.774Z,9.02
2023-04-07T00:31:52.713Z,9.08
2023-04-07T00:32:52.745Z,8.45
2023-04-07T00:33:53.023Z,7.87
2023-04-07T00:34:52.741Z,8.58
2023-04-07T00:35:52.849Z,8.40
2023-04-07T00:36:52.787Z,8.33
2023-04-07T00:37:52.821Z,8.26
2023-04-07T00:38:52.862Z,9.32
2023-04-07T00:39:52.881Z,8.07
2023-04-07T00:40:52.900Z,8.43
2023-04-07T00:41:52.923Z,8.13
2023-04-07T00:42:52.961Z,8.09
2023-04-07T00:43:53.356Z,9.14
2023-04-07T00:44:53.031Z,8.66
2023-04-07T00:45:53.052Z,8.05
2023-04-07T00:46:53.113Z,8.81
2023-04-07T00:47:53.151Z,8.66
2023-04-07T00:48:53.174Z,8.96
2023-04-07T00:49:53.202Z,8.80
2023-04-07T00:50:53.232Z,8.62
2023-04-07T00:51:53.280Z,8.64
2023-04-07T00:52:53.318Z,8.73
2023-04-07T00:53:53.620Z,8.35
2023-04-07T00:54:53.398Z,9.32
2023-04-07T00:55:53.432Z,9.92
2023-04-07T00:56:53.458Z,10.22
2023-04-07T00:57:53.467Z,9.81
2023-04-07T00:58:53.485Z,9.65
2023-04-07T00:59:53.507Z,9.75
2023-04-07T01:00:53.537Z,10.37
2023-04-07T01:01:53.677Z,9.67
2023-04-07T01:02:53.769Z,9.62
2023-04-07T01:03:54.034Z,9.57
2023-04-07T01:04:53.746Z,9.49
2023-04-07T01:05:53.628Z,9.21
2023-04-07T01:06:53.629Z,9.96
2023-04-07T01:07:53.613Z,9.96
2023-04-07T01:08:53.609Z,9.86
2023-04-07T01:09:53.654Z,10.49
2023-04-07T01:10:53.620Z,10.62
2023-04-07T01:11:53.618Z,9.94
2023-04-07T01:12:53.618Z,9.11
2023-04-07T01:13:53.882Z,10.05
2023-04-07T01:14:53.630Z,9.77
2023-04-07T01:15:53.668Z,9.79
2023-04-07T01:16:55.154Z,9.51
2023-04-07T01:17:53.633Z,9.57
2023-04-07T01:18:53.634Z,9.88
2023-04-07T01:19:53.651Z,9.23
2023-04-07T01:20:53.658Z,10.10
2023-04-07T01:21:53.655Z,9.50
2023-04-07T01:22:53.667Z,10.36
2023-04-07T01:23:53.866Z,9.02
2023-04-07T01:24:53.719Z,9.56
2023-04-07T01:25:53.764Z,8.53
2023-04-07T01:26:53.822Z,8.54
2023-04-07T01:27:53.816Z,9.00
2023-04-07T01:28:53.847Z,8.57
2023-04-07T01:29:53.883Z,8.44
2023-04-07T01:30:53.904Z,9.29
2023-04-07T01:31:53.937Z,9.01
2023-04-07T01:32:53.965Z,8.43
2023-04-07T01:33:54.168Z,9.04
2023-04-07T01:34:53.930Z,8.65
2023-04-07T01:35:53.949Z,8.39
2023-04-07T01:36:53.998Z,8.28
2023-04-07T01:37:53.958Z,8.16
2023-04-07T01:38:53.979Z,8.60
2023-04-07T01:39:53.989Z,8.15
2023-04-07T01:40:54.018Z,8.42
2023-04-07T01:41:54.056Z,8.42
2023-04-07T01:42:54.055Z,8.62
2023-04-07T01:43:54.248Z,7.97
2023-04-07T01:44:54.097Z,8.78
2023-04-07T01:45:54.121Z,8.02
2023-04-07T01:46:54.201Z,8.92
2023-04-07T01:47:54.166Z,8.88
2023-04-07T01:48:54.171Z,9.15
2023-04-07T01:49:54.178Z,7.98
2023-04-07T01:50:54.208Z,7.72
2023-04-07T01:51:54.246Z,7.80
2023-04-07T01:52:54.248Z,8.56
2023-04-07T01:53:54.409Z,9.15
2023-04-07T01:54:54.306Z,8.92
2023-04-07T01:55:54.360Z,8.56
2023-04-07T01:56:54.388Z,9.40
2023-04-07T01:57:54.413Z,7.93
2023-04-07T01:58:54.436Z,8.64
2023-04-07T01:59:54.458Z,8.49
2023-04-07T02:00:54.514Z,9.08
2023-04-07T02:01:54.564Z,8.58
2023-04-07T02:02:54.588Z,9.59
2023-04-07T02:03:54.827Z,9.05
2023-04-07T02:04:54.570Z,9.18
2023-04-07T02:05:54.573Z,9.57
2023-04-07T02:06:54.616Z,8.90
2023-04-07T02:07:54.707Z,8.92
2023-04-07T02:08:54.643Z,8.58
2023-04-07T02:09:54.689Z,8.91
2023-04-07T02:10:54.725Z,10.61
2023-04-07T02:11:54.740Z,10.65
2023-04-07T02:12:54.795Z,9.97
2023-04-07T02:13:55.113Z,10.40
2023-04-07T02:14:54.905Z,10.72
2023-04-07T02:15:54.944Z,9.88
2023-04-07T02:16:55.059Z,9.70
2023-04-07T02:17:55.108Z,9.90
2023-04-07T02:18:55.136Z,10.33
2023-04-07T02:19:55.198Z,9.67
2023-04-07T02:20:55.231Z,9.79
2023-04-07T02:21:55.278Z,9.50
2023-04-07T02:22:55.329Z,9.54
2023-04-07T02:23:55.564Z,9.24
2023-04-07T02:24:55.430Z,10.22
2023-04-07T02:25:55.480Z,10.11
2023-04-07T02:26:55.510Z,9.58
2023-04-07T02:27:55.556Z,9.75
2023-04-07T02:28:55.610Z,9.99
2023-04-07T02:29:55.611Z,9.27
2023-04-07T02:30:55.788Z,10.02
2023-04-07T02:31:55.688Z,9.25
2023-04-07T02:32:55.692Z,9.37
2023-04-07T02:33:55.835Z,9.88
2023-04-07T02:34:55.719Z,8.89
2023-04-07T02:35:55.747Z,9.57
2023-04-07T02:36:55.830Z,9.79
2023-04-07T02:37:55.766Z,9.16
2023-04-07T02:38:55.818Z,8.93
2023-04-07T02:39:55.854Z,9.11
2023-04-07T02:40:55.857Z,9.12
2023-04-07T02:41:55.860Z,10.25
2023-04-07T02:42:55.906Z,11.17
2023-04-07T02:43:56.164Z,9.70
2023-04-07T02:44:55.926Z,10.39
2023-04-07T02:45:55.958Z,10.49
2023-04-07T02:46:55.947Z,11.20
2023-04-07T02:47:56.002Z,10.45
2023-04-07T02:48:55.991Z,10.67
2023-04-07T02:49:56.028Z,9.37
2023-04-07T02:50:56.033Z,10.99
2023-04-07T02:51:56.027Z,11.75
2023-04-07T02:52:56.016Z,10.13
2023-04-07T02:53:56.354Z,10.57
2023-04-07T02:54:56.037Z,10.86
2023-04-07T02:55:56.036Z,10.63
2023-04-07T02:56:56.035Z,10.70
2023-04-07T02:57:56.022Z,10.60
2023-04-07T02:58:56.011Z,10.99
2023-04-07T02:59:56.016Z,10.35
2023-04-07T03:00:56.068Z,10.30
2023-04-07T03:01:56.212Z,10.85
2023-04-07T03:02:56.136Z,9.37
2023-04-07T03:03:56.360Z,9.26
2023-04-07T03:04:56.126Z,10.01
2023-04-07T03:05:56.149Z,9.44
2023-04-07T03:06:56.175Z,10.60
2023-04-07T03:07:56.192Z,9.62
2023-04-07T03:08:56.223Z,9.06
2023-04-07T03:09:56.223Z,10.35
2023-04-07T03:10:56.249Z,10.03
2023-04-07T03:11:56.283Z,9.36
2023-04-07T03:12:56.286Z,9.71
2023-04-07T03:13:56.307Z,9.52
2023-04-07T03:14:56.342Z,9.82
2023-04-07T03:15:56.400Z,9.90
2023-04-07T03:16:56.468Z,9.86
2023-04-07T03:17:56.457Z,10.31
2023-04-07T03:18:56.479Z,9.55
2023-04-07T03:19:56.575Z,9.88
2023-04-07T03:20:56.532Z,9.81
2023-04-07T03:21:56.536Z,10.63
2023-04-07T03:22:56.573Z,9.58
2023-04-07T03:23:56.609Z,10.09
2023-04-07T03:24:56.672Z,9.25
2023-04-07T03:25:56.676Z,8.60
2023-04-07T03:26:56.700Z,8.43
2023-04-07T03:27:56.716Z,8.93
2023-04-07T03:28:56.745Z,9.76
2023-04-07T03:29:56.778Z,9.59
2023-04-07T03:30:56.859Z,9.75
2023-04-07T03:31:56.881Z,10.02
2023-04-07T03:32:56.916Z,8.96
2023-04-07T03:33:56.930Z,9.52
2023-04-07T03:34:56.946Z,9.52
2023-04-07T03:35:56.997Z,8.83
2023-04-07T03:36:57.027Z,9.19
2023-04-07T03:37:57.068Z,9.02
2023-04-07T03:38:57.084Z,8.53
2023-04-07T03:39:57.132Z,9.13
2023-04-07T03:40:57.163Z,9.63
2023-04-07T03:41:57.200Z,9.07
2023-04-07T03:42:57.233Z,9.38
2023-04-07T03:43:57.283Z,9.47
2023-04-07T03:44:57.318Z,8.52
2023-04-07T03:45:57.366Z,9.52
2023-04-07T03:46:57.385Z,9.54
2023-04-07T03:47:57.479Z,9.89
2023-04-07T03:48:57.469Z,10.56
2023-04-07T03:49:57.512Z,9.80
2023-04-07T03:50:57.599Z,10.17
2023-04-07T03:51:57.605Z,10.58
2023-04-07T03:52:57.661Z,10.91
2023-04-07T03:53:57.718Z,10.26
2023-04-07T03:54:57.804Z,10.81
2023-04-07T03:55:57.865Z,11.01
2023-04-07T03:56:57.861Z,9.69
2023-04-07T03:57:57.908Z,11.58
2023-04-07T03:58:57.969Z,10.57
2023-04-07T03:59:58.007Z,11.70
2023-04-07T04:00:58.063Z,11.25
2023-04-07T04:01:58.209Z,10.90
2023-04-07T04:02:58.226Z,10.91
2023-04-07T04:03:58.523Z,10.71
2023-04-07T04:04:58.278Z,10.33
2023-04-07T04:05:58.293Z,11.01
2023-04-07T04:06:58.353Z,10.80
2023-04-07T04:07:58.400Z,10.86
2023-04-07T04:08:58.422Z,10.40
2023-04-07T04:09:58.462Z,11.21
2023-04-07T04:10:58.515Z,11.14
2023-04-07T04:11:58.568Z,10.66
2023-04-07T04:12:58.601Z,11.20
2023-04-07T04:13:58.647Z,11.88
2023-04-07T04:14:58.722Z,11.12
2023-04-07T04:15:58.783Z,10.91
2023-04-07T04:16:58.795Z,10.66
2023-04-07T04:17:58.900Z,10.75
2023-04-07T04:18:58.899Z,9.81
2023-04-07T04:19:58.949Z,10.45
2023-04-07T04:20:58.972Z,10.34
2023-04-07T04:21:59.029Z,10.74
2023-04-07T04:22:59.062Z,10.78
2023-04-07T04:23:59.126Z,10.07
2023-04-07T04:24:59.146Z,10.75
2023-04-07T04:25:59.178Z,10.48
2023-04-07T04:26:59.229Z,10.83
2023-04-07T04:27:59.249Z,11.22
2023-04-07T04:28:59.293Z,10.85
2023-04-07T04:29:59.336Z,10.65
2023-04-07T04:30:59.380Z,10.70
2023-04-07T04:31:59.375Z,10.46
2023-04-07T04:32:59.423Z,10.81
2023-04-07T04:33:59.432Z,10.62
2023-04-07T04:34:59.450Z,10.27
2023-04-07T04:35:59.472Z,9.83
2023-04-07T04:36:59.557Z,9.96
2023-04-07T04:37:59.524Z,10.15
2023-04-07T04:38:59.538Z,10.61
2023-04-07T04:39:59.562Z,9.96
2023-04-07T04:40:59.606Z,10.52
2023-04-07T04:41:59.601Z,10.43
2023-04-07T04:42:59.607Z,9.91
2023-04-07T04:43:59.627Z,9.69
2023-04-07T04:44:59.669Z,9.85
2023-04-07T04:45:59.681Z,11.11
2023-04-07T04:46:59.764Z,10.17
2023-04-07T04:47:59.755Z,10.84
2023-04-07T04:48:59.741Z,10.45
2023-04-07T04:49:59.741Z,10.22
2023-04-07T04:50:59.767Z,10.51
2023-04-07T04:51:59.785Z,11.56
2023-04-07T04:52:59.808Z,11.81
2023-04-07T04:53:59.808Z,10.65
2023-04-07T04:54:59.827Z,10.36
2023-04-07T04:55:59.826Z,10.91
2023-04-07T04:56:59.840Z,10.01
2023-04-07T04:57:59.835Z,10.30
2023-04-07T04:58:59.850Z,11.10
2023-04-07T04:59:59.843Z,11.07
2023-04-07T05:00:59.966Z,10.35
2023-04-07T05:01:59.970Z,10.43
2023-04-07T05:03:00.060Z,11.78
2023-04-07T05:04:00.185Z,11.54
2023-04-07T05:05:00.017Z,11.97
2023-04-07T05:05:59.887Z,12.92
2023-04-07T05:06:59.880Z,13.14
2023-04-07T05:07:59.915Z,13.44
2023-04-07T05:08:59.912Z,13.74
2023-04-07T05:09:59.930Z,13.63
2023-04-07T05:10:59.950Z,15.76
2023-04-07T05:11:59.977Z,16.64
2023-04-07T05:12:59.977Z,16.40
2023-04-07T05:14:00.030Z,17.76
2023-04-07T05:15:00.007Z,18.21
2023-04-07T05:16:00.085Z,18.62
2023-04-07T05:17:00.021Z,17.74
2023-04-07T05:18:00.086Z,20.90
2023-04-07T05:19:00.069Z,21.01
2023-04-07T05:20:00.068Z,21.67
2023-04-07T05:21:00.118Z,22.20
2023-04-07T05:22:00.122Z,20.42
2023-04-07T05:23:00.134Z,20.16
2023-04-07T05:24:00.143Z,20.58
2023-04-07T05:25:00.148Z,19.19
2023-04-07T05:26:00.137Z,19.75
2023-04-07T05:27:00.115Z,21.44
2023-04-07T05:28:00.144Z,20.90
2023-04-07T05:29:00.121Z,18.93
2023-04-07T05:30:00.146Z,21.28
2023-04-07T05:31:00.136Z,19.81
2023-04-07T05:32:00.233Z,20.78
2023-04-07T05:33:00.225Z,21.24
2023-04-07T05:34:00.151Z,20.65
2023-04-07T05:35:00.179Z,20.94
2023-04-07T05:36:00.237Z,21.30
2023-04-07T05:37:00.166Z,19.65
2023-04-07T05:38:00.163Z,20.57
2023-04-07T05:39:00.233Z,19.80
2023-04-07T05:40:00.221Z,20.89
2023-04-07T05:41:00.204Z,21.06
2023-04-07T05:42:00.201Z,20.13
2023-04-07T05:43:00.213Z,23.17
2023-04-07T05:44:00.201Z,20.84
2023-04-07T05:45:00.221Z,22.17
2023-04-07T05:46:00.280Z,22.16
2023-04-07T05:47:00.204Z,23.24
2023-04-07T05:48:00.332Z,22.03
2023-04-07T05:49:04.602Z,22.43
2023-04-07T05:50:01.212Z,21.87
2023-04-07T05:51:00.217Z,22.99
2023-04-07T05:52:00.183Z,23.09
2023-04-07T05:53:00.189Z,23.62
2023-04-07T05:54:00.210Z,23.68
2023-04-07T05:55:00.171Z,23.12
2023-04-07T05:56:00.177Z,21.34
2023-04-07T05:57:00.161Z,21.39
2023-04-07T05:58:00.167Z,20.53
2023-04-07T05:59:00.128Z,20.79
2023-04-07T06:00:00.145Z,19.31
2023-04-07T06:01:00.143Z,19.38
2023-04-07T06:02:00.187Z,18.99
2023-04-07T06:03:00.204Z,18.77
2023-04-07T06:04:00.216Z,18.18
2023-04-07T06:05:00.182Z,18.19
2023-04-07T06:06:00.117Z,18.22
2023-04-07T06:07:00.119Z,18.00
2023-04-07T06:08:00.100Z,18.11
2023-04-07T06:09:00.095Z,17.19
2023-04-07T06:10:00.061Z,17.03
2023-04-07T06:11:00.046Z,15.11
2023-04-07T06:12:00.044Z,16.45
2023-04-07T06:13:00.041Z,17.86
2023-04-07T06:14:00.056Z,16.25
2023-04-07T06:15:00.041Z,16.46
2023-04-07T06:16:00.020Z,16.56
2023-04-07T06:17:00.082Z,16.66
2023-04-07T06:18:00.067Z,17.20
2023-04-07T06:18:59.988Z,15.72
2023-04-07T06:19:59.988Z,16.48
2023-04-07T06:20:59.985Z,17.31
2023-04-07T06:21:59.991Z,16.58
2023-04-07T06:22:59.986Z,18.20
2023-04-07T06:23:59.957Z,16.97
2023-04-07T06:24:59.974Z,16.37
2023-04-07T06:25:59.974Z,17.89
2023-04-07T06:26:59.997Z,16.63
2023-04-07T06:28:00.039Z,16.12
2023-04-07T06:29:00.004Z,15.99
2023-04-07T06:30:00.013Z,16.41
2023-04-07T06:31:00.196Z,16.63
2023-04-07T06:32:00.003Z,16.26
2023-04-07T06:33:00.110Z,18.07
2023-04-07T06:34:00.036Z,16.69
2023-04-07T06:35:00.038Z,16.24
2023-04-07T06:36:00.033Z,16.69
2023-04-07T06:37:00.166Z,16.72
2023-04-07T06:38:00.048Z,15.89
2023-04-07T06:39:00.036Z,16.14
2023-04-07T06:40:00.071Z,17.10
2023-04-07T06:41:00.062Z,16.15
2023-04-07T06:42:00.058Z,16.19
2023-04-07T06:43:00.107Z,17.12
2023-04-07T06:44:00.128Z,17.58
2023-04-07T06:45:00.150Z,16.93
2023-04-07T06:46:00.203Z,16.92
2023-04-07T06:47:00.215Z,16.99
2023-04-07T06:48:00.256Z,17.13
2023-04-07T06:49:00.465Z,15.13
2023-04-07T06:50:00.306Z,15.54
2023-04-07T06:51:00.276Z,16.33
2023-04-07T06:52:00.273Z,16.85
2023-04-07T06:53:00.276Z,15.80
2023-04-07T06:54:00.329Z,16.96
2023-04-07T06:55:00.283Z,17.05
2023-04-07T06:56:00.360Z,16.21
2023-04-07T06:57:00.353Z,17.27
2023-04-07T06:58:00.379Z,16.94
2023-04-07T06:59:00.421Z,16.60
2023-04-07T07:00:00.446Z,19.53
2023-04-07T07:01:00.493Z,38.65
2023-04-07T07:02:00.574Z,24.68
2023-04-07T07:03:00.538Z,24.87
2023-04-07T07:04:00.514Z,43.12
2023-04-07T07:05:00.467Z,50.05
2023-04-07T07:06:00.522Z,51.75
2023-04-07T07:07:00.483Z,37.96
2023-04-07T07:08:00.483Z,28.23
2023-04-07T07:09:00.487Z,23.52
2023-04-07T07:10:00.485Z,18.96
2023-04-07T07:11:00.535Z,17.63
2023-04-07T07:12:01.587Z,19.41
2023-04-07T07:13:00.689Z,19.40
2023-04-07T07:14:00.725Z,14.27
2023-04-07T07:15:00.775Z,11.86
2023-04-07T07:16:00.858Z,11.88
2023-04-07T07:17:00.859Z,11.63
2023-04-07T07:18:00.949Z,11.54
2023-04-07T07:19:00.934Z,12.25
2023-04-07T07:20:00.957Z,12.87
2023-04-07T07:21:00.985Z,12.96
2023-04-07T07:22:01.004Z,12.10
2023-04-07T07:23:01.024Z,13.42
2023-04-07T07:24:01.074Z,12.82
2023-04-07T07:25:01.116Z,12.87
2023-04-07T07:26:01.121Z,13.26
2023-04-07T07:27:01.147Z,12.92
2023-04-07T07:28:01.157Z,13.42
2023-04-07T07:29:01.180Z,12.65
2023-04-07T07:30:01.229Z,12.57
2023-04-07T07:31:01.279Z,12.87
2023-04-07T07:32:01.240Z,14.11
2023-04-07T07:33:01.275Z,13.18
2023-04-07T07:34:01.267Z,13.88
2023-04-07T07:35:01.557Z,12.79
2023-04-07T07:36:01.260Z,12.97
2023-04-07T07:37:01.264Z,12.58
2023-04-07T07:38:01.259Z,12.78
2023-04-07T07:39:01.269Z,13.16
2023-04-07T07:40:01.241Z,13.34
2023-04-07T07:41:01.259Z,12.27
2023-04-07T07:42:01.278Z,12.56
2023-04-07T07:43:01.323Z,11.01
2023-04-07T07:44:01.321Z,13.22
2023-04-07T07:45:01.348Z,13.37
2023-04-07T07:46:01.442Z,13.61
2023-04-07T07:47:01.415Z,12.93
2023-04-07T07:48:01.480Z,13.13
2023-04-07T07:49:01.662Z,12.60
2023-04-07T07:50:01.516Z,12.26
2023-04-07T07:51:01.540Z,11.47
2023-04-07T07:52:01.566Z,10.17
2023-04-07T07:53:01.601Z,10.77
2023-04-07T07:54:01.613Z,10.86
2023-04-07T07:55:01.660Z,10.15
2023-04-07T07:56:01.700Z,10.67
2023-04-07T07:57:01.783Z,11.22
2023-04-07T07:58:01.828Z,11.06
2023-04-07T07:59:01.894Z,11.69
2023-04-07T08:00:01.977Z,10.87
2023-04-07T08:01:02.026Z,10.98
2023-04-07T08:02:02.103Z,10.93
2023-04-07T08:03:02.181Z,10.35
2023-04-07T08:04:02.437Z,10.22
2023-04-07T08:05:02.332Z,10.92
2023-04-07T08:06:02.318Z,9.50
2023-04-07T08:07:02.354Z,10.06
2023-04-07T08:08:02.419Z,9.47
2023-04-07T08:09:02.454Z,9.84
2023-04-07T08:10:02.528Z,10.22
2023-04-07T08:11:02.567Z,10.11
2023-04-07T08:12:02.613Z,9.26
2023-04-07T08:13:02.626Z,9.26
2023-04-07T08:14:02.654Z,9.08
2023-04-07T08:15:02.682Z,8.80
2023-04-07T08:16:02.704Z,9.55
2023-04-07T08:17:02.676Z,9.04
2023-04-07T08:18:02.700Z,10.03
2023-04-07T08:19:02.700Z,9.59
2023-04-07T08:20:02.707Z,9.54
2023-04-07T08:21:02.728Z,10.20
2023-04-07T08:22:02.705Z,9.62
2023-04-07T08:23:02.707Z,10.10
2023-04-07T08:24:02.744Z,10.93
2023-04-07T08:25:02.773Z,10.53
2023-04-07T08:26:02.794Z,10.49
2023-04-07T08:27:02.818Z,10.32
2023-04-07T08:28:02.853Z,10.32
2023-04-07T08:29:02.855Z,9.63
2023-04-07T08:30:02.882Z,10.32
2023-04-07T08:31:02.892Z,10.22
2023-04-07T08:32:02.884Z,10.39
2023-04-07T08:33:02.931Z,11.35
2023-04-07T08:34:02.893Z,10.75
2023-04-07T08:35:02.916Z,11.13
2023-04-07T08:36:02.948Z,10.97
2023-04-07T08:37:02.913Z,10.86
2023-04-07T08:38:02.910Z,10.25
2023-04-07T08:39:02.922Z,9.87
2023-04-07T08:40:02.925Z,10.88
2023-04-07T08:41:02.952Z,10.62
2023-04-07T08:42:02.962Z,10.75
2023-04-07T08:43:02.944Z,9.82
2023-04-07T08:44:03.014Z,9.71
2023-04-07T08:45:03.047Z,10.08
2023-04-07T08:46:03.116Z,9.17
2023-04-07T08:47:03.204Z,10.30
2023-04-07T08:48:03.248Z,9.27
2023-04-07T08:49:03.280Z,10.32
2023-04-07T08:50:03.333Z,9.73
2023-04-07T08:51:03.383Z,10.56
2023-04-07T08:52:05.358Z,10.56
2023-04-07T08:53:04.448Z,10.40
2023-04-07T08:54:03.518Z,9.96
2023-04-07T08:55:03.512Z,9.99
2023-04-07T08:56:03.546Z,10.29
2023-04-07T08:57:03.605Z,10.19
2023-04-07T08:58:03.636Z,9.29
2023-04-07T08:59:03.655Z,9.78
2023-04-07T09:00:03.715Z,9.51
2023-04-07T09:01:03.771Z,9.37
2023-04-07T09:02:03.812Z,9.70
2023-04-07T09:03:03.880Z,9.92
2023-04-07T09:04:03.849Z,8.80
2023-04-07T09:05:03.875Z,9.15
2023-04-07T09:06:03.913Z,10.19
2023-04-07T09:07:03.894Z,9.55
2023-04-07T09:08:03.916Z,9.20
2023-04-07T09:09:03.909Z,9.04
2023-04-07T09:10:03.919Z,9.40
2023-04-07T09:11:03.939Z,9.37
2023-04-07T09:12:03.915Z,8.88
2023-04-07T09:13:03.948Z,9.09
2023-04-07T09:14:03.986Z,9.30
2023-04-07T09:15:03.986Z,9.45
2023-04-07T09:16:04.068Z,10.02
2023-04-07T09:17:04.041Z,10.05
2023-04-07T09:18:04.060Z,9.10
2023-04-07T09:19:04.052Z,8.11
2023-04-07T09:20:04.071Z,8.66
2023-04-07T09:21:04.093Z,8.93
2023-04-07T09:22:04.110Z,7.95
2023-04-07T09:23:04.121Z,7.64
2023-04-07T09:24:04.135Z,7.00
2023-04-07T09:25:04.163Z,7.81
2023-04-07T09:26:04.188Z,7.64
2023-04-07T09:27:04.191Z,8.84
2023-04-07T09:28:04.216Z,8.24
2023-04-07T09:29:04.204Z,8.71
2023-04-07T09:30:04.200Z,8.66
2023-04-07T09:31:04.236Z,8.51
2023-04-07T09:32:04.315Z,9.07
2023-04-07T09:33:04.266Z,9.10
2023-04-07T09:34:04.280Z,8.22
2023-04-07T09:35:04.281Z,8.54
2023-04-07T09:36:04.307Z,8.47
2023-04-07T09:37:04.309Z,8.47
2023-04-07T09:38:04.371Z,10.01
2023-04-07T09:39:04.417Z,8.44
2023-04-07T09:40:04.467Z,8.72
2023-04-07T09:41:04.557Z,8.55
2023-04-07T09:42:04.563Z,8.02
2023-04-07T09:43:04.620Z,9.06
2023-04-07T09:44:04.689Z,8.75
2023-04-07T09:45:04.723Z,8.93
2023-04-07T09:46:04.783Z,8.85
2023-04-07T09:47:04.840Z,8.68
2023-04-07T09:48:04.913Z,8.62
2023-04-07T09:49:04.935Z,8.03
2023-04-07T09:50:04.993Z,9.57
2023-04-07T09:51:05.063Z,9.48
2023-04-07T09:52:05.176Z,8.48
2023-04-07T09:53:05.196Z,9.58
2023-04-07T09:54:05.200Z,10.06
2023-04-07T09:55:05.249Z,9.20
2023-04-07T09:56:05.327Z,9.54
2023-04-07T09:57:05.387Z,10.76
2023-04-07T09:58:05.430Z,10.81
2023-04-07T09:59:05.493Z,10.60
2023-04-07T10:00:05.577Z,10.52
2023-04-07T10:01:05.651Z,9.98
2023-04-07T10:02:05.791Z,9.52
2023-04-07T10:03:05.928Z,10.56
2023-04-07T10:04:05.813Z,9.83
2023-04-07T10:05:05.812Z,9.74
2023-04-07T10:06:05.870Z,9.21
2023-04-07T10:07:05.934Z,9.16
2023-04-07T10:08:05.973Z,9.38
2023-04-07T10:09:06.047Z,8.92
2023-04-07T10:10:06.091Z,9.16
2023-04-07T10:11:06.140Z,9.61
2023-04-07T10:12:06.204Z,10.14
2023-04-07T10:13:06.288Z,10.44
2023-04-07T10:14:06.310Z,9.56
2023-04-07T10:15:06.375Z,10.03
2023-04-07T10:16:06.408Z,10.16
2023-04-07T10:17:06.471Z,10.14
2023-04-07T10:18:06.523Z,11.28
2023-04-07T10:19:06.534Z,10.19
2023-04-07T10:20:06.576Z,10.90
2023-04-07T10:21:06.622Z,9.96
2023-04-07T10:22:06.658Z,9.75
2023-04-07T10:23:06.696Z,10.20
2023-04-07T10:24:06.771Z,10.74
2023-04-07T10:25:06.792Z,10.38
2023-04-07T10:26:06.862Z,10.82
2023-04-07T10:27:06.899Z,9.92
2023-04-07T10:28:06.950Z,10.02
2023-04-07T10:29:06.965Z,9.66
2023-04-07T10:30:07.020Z,9.55
2023-04-07T10:31:07.063Z,9.96
2023-04-07T10:32:07.141Z,9.17
2023-04-07T10:33:07.161Z,9.06
2023-04-07T10:34:07.139Z,9.88
2023-04-07T10:35:07.155Z,9.21
2023-04-07T10:36:07.281Z,9.06
2023-04-07T10:37:07.165Z,9.51
2023-04-07T10:38:07.342Z,9.50
2023-04-07T10:39:07.225Z,10.18
2023-04-07T10:40:07.208Z,8.76
2023-04-07T10:41:07.235Z,9.60
2023-04-07T10:42:07.231Z,9.71
2023-04-07T10:43:07.234Z,9.25
2023-04-07T10:44:07.236Z,9.80
2023-04-07T10:45:07.227Z,10.00
2023-04-07T10:46:07.260Z,9.82
2023-04-07T10:47:07.211Z,10.15
2023-04-07T10:48:07.265Z,10.45
2023-04-07T10:49:07.223Z,11.08
2023-04-07T10:50:07.250Z,10.77
2023-04-07T10:51:07.271Z,10.05
2023-04-07T10:52:07.282Z,9.40
2023-04-07T10:53:07.270Z,9.23
2023-04-07T10:54:07.337Z,10.07
2023-04-07T10:55:07.396Z,9.96
2023-04-07T10:56:07.452Z,9.34
2023-04-07T10:57:07.518Z,10.08
2023-04-07T10:58:07.575Z,9.41
2023-04-07T10:59:07.619Z,9.34
2023-04-07T11:00:07.693Z,8.97
2023-04-07T11:01:07.791Z,10.09
2023-04-07T11:02:07.856Z,9.57
2023-04-07T11:03:08.122Z,10.09
2023-04-07T11:04:08.018Z,9.84
2023-04-07T11:05:07.968Z,8.52
2023-04-07T11:06:07.982Z,8.79
2023-04-07T11:07:08.005Z,7.93
2023-04-07T11:08:08.039Z,8.59
2023-04-07T11:09:08.068Z,8.56
2023-04-07T11:10:08.091Z,8.77
2023-04-07T11:11:08.131Z,7.68
2023-04-07T11:12:08.154Z,7.62
2023-04-07T11:13:08.183Z,7.60
2023-04-07T11:14:08.187Z,8.46
2023-04-07T11:15:08.201Z,8.79
2023-04-07T11:16:08.282Z,7.44
2023-04-07T11:17:08.278Z,7.99
2023-04-07T11:18:08.281Z,8.83
2023-04-07T11:19:08.299Z,8.32
2023-04-07T11:20:08.301Z,7.63
2023-04-07T11:21:08.310Z,7.78
2023-04-07T11:22:13.815Z,7.14
2023-04-07T11:23:09.306Z,7.21
2023-04-07T11:24:08.304Z,6.52
2023-04-07T11:25:08.310Z,7.24
2023-04-07T11:26:08.292Z,7.09
2023-04-07T11:27:08.298Z,6.18
2023-04-07T11:28:08.289Z,6.57
2023-04-07T11:29:08.270Z,6.10
2023-04-07T11:30:08.340Z,6.73
2023-04-07T11:31:08.297Z,6.51
2023-04-07T11:32:08.269Z,6.48
2023-04-07T11:33:08.241Z,7.00
2023-04-07T11:34:08.249Z,5.92
2023-04-07T11:35:08.328Z,5.75
2023-04-07T11:36:08.284Z,6.57
2023-04-07T11:37:08.226Z,6.05
2023-04-07T11:38:08.205Z,6.44
2023-04-07T11:39:08.213Z,6.94
2023-04-07T11:40:08.277Z,6.24
2023-04-07T11:41:08.189Z,6.39
2023-04-07T11:42:08.187Z,6.75
2023-04-07T11:43:08.217Z,6.47
2023-04-07T11:44:08.168Z,6.46
2023-04-07T11:45:08.491Z,6.91
2023-04-07T11:46:08.253Z,7.13
2023-04-07T11:47:08.185Z,5.89
2023-04-07T11:48:08.201Z,6.85
2023-04-07T11:49:08.133Z,6.51
2023-04-07T11:50:08.178Z,6.28
2023-04-07T11:51:08.167Z,6.18
2023-04-07T11:52:08.171Z,6.22
2023-04-07T11:53:08.217Z,6.88
2023-04-07T11:54:08.213Z,6.19
2023-04-07T11:55:08.211Z,5.88
2023-04-07T11:56:08.261Z,5.89
2023-04-07T11:57:08.259Z,6.11
2023-04-07T11:58:08.259Z,5.82
2023-04-07T11:59:08.287Z,5.83
2023-04-07T12:00:08.303Z,5.84
2023-04-07T12:01:08.320Z,5.47
2023-04-07T12:02:08.490Z,6.01
2023-04-07T12:03:08.604Z,5.51
2023-04-07T12:04:08.675Z,5.96
2023-04-07T12:05:08.572Z,5.74
2023-04-07T12:06:08.433Z,6.30
2023-04-07T12:07:08.443Z,6.32
2023-04-07T12:08:08.461Z,6.03
2023-04-07T12:09:08.496Z,5.70
2023-04-07T12:10:08.500Z,5.82
2023-04-07T12:11:08.520Z,5.03
2023-04-07T12:12:08.623Z,5.66
2023-04-07T12:13:08.569Z,5.05
2023-04-07T12:14:08.581Z,4.68
2023-04-07T12:15:08.592Z,4.50
2023-04-07T12:16:08.626Z,4.88
2023-04-07T12:17:08.636Z,5.21
2023-04-07T12:18:08.647Z,4.72
2023-04-07T12:19:08.658Z,4.68
2023-04-07T12:20:08.696Z,4.75
2023-04-07T12:21:08.716Z,4.45
2023-04-07T12:22:08.730Z,4.34
2023-04-07T12:23:08.740Z,4.80
2023-04-07T12:24:08.759Z,5.17
2023-04-07T12:25:08.804Z,4.82
2023-04-07T12:26:08.787Z,4.93
2023-04-07T12:27:08.782Z,4.74
2023-04-07T12:28:08.774Z,4.78
2023-04-07T12:29:08.842Z,4.27
2023-04-07T12:30:08.818Z,4.92
2023-04-07T12:31:08.833Z,4.18
2023-04-07T12:32:08.907Z,4.65
2023-04-07T12:33:08.842Z,4.96
2023-04-07T12:34:08.859Z,4.87
2023-04-07T12:35:08.872Z,4.68
2023-04-07T12:36:08.921Z,4.67
2023-04-07T12:37:08.899Z,5.27
2023-04-07T12:38:08.926Z,4.95
2023-04-07T12:39:08.911Z,4.89
2023-04-07T12:40:08.939Z,4.80
2023-04-07T12:41:09.045Z,5.42
2023-04-07T12:42:09.092Z,4.79
2023-04-07T12:43:09.112Z,4.90
2023-04-07T12:44:09.117Z,5.48
2023-04-07T12:45:09.143Z,5.89
2023-04-07T12:46:09.338Z,4.35
2023-04-07T12:47:09.254Z,5.18
2023-04-07T12:48:09.347Z,4.99
2023-04-07T12:49:09.368Z,5.32
2023-04-07T12:50:09.389Z,5.35
2023-04-07T12:51:09.496Z,5.23
2023-04-07T12:52:09.484Z,5.39
2023-04-07T12:53:09.490Z,4.24
2023-04-07T12:54:09.472Z,3.71
2023-04-07T12:55:09.482Z,4.15
2023-04-07T12:56:09.502Z,3.83
2023-04-07T12:57:09.560Z,3.16
2023-04-07T12:58:09.576Z,2.25
2023-04-07T12:59:09.590Z,2.80
2023-04-07T13:00:09.610Z,2.42
2023-04-07T13:01:09.708Z,2.70
2023-04-07T13:02:09.850Z,2.80
2023-04-07T13:03:09.839Z,2.60
2023-04-07T13:04:09.936Z,3.40
2023-04-07T13:05:09.886Z,2.76
2023-04-07T13:06:09.923Z,3.12
2023-04-07T13:07:09.956Z,3.91